createdAt,value
2018-11-13T00:00:25.649Z,4.73
2018-11-13T00:02:55.496Z,5.07
2018-11-13T00:05:25.382Z,5.30
2018-11-13T00:07:54.756Z,5.47
2018-11-13T00:10:24.068Z,4.87
2018-11-13T00:12:53.418Z,5.30
2018-11-13T00:15:22.798Z,5.03
2018-11-13T00:17:52.126Z,4.70
2018-11-13T00:20:21.760Z,4.47
2018-11-13T00:22:51.112Z,5.10
2018-11-13T00:25:21.238Z,4.77
2018-11-13T00:27:50.598Z,4.07
2018-11-13T00:30:21.799Z,5.20
2018-11-13T00:32:51.583Z,4.13
2018-11-13T00:35:21.848Z,3.77
2018-11-13T00:37:52.454Z,3.87
2018-11-13T00:40:21.847Z,3.50
2018-11-13T00:42:51.323Z,3.63
2018-11-13T00:45:20.738Z,3.67
2018-11-13T00:47:50.096Z,4.50
2018-11-13T00:50:20.574Z,4.60
2018-11-13T00:52:50.339Z,4.07
2018-11-13T00:55:19.825Z,4.43
2018-11-13T00:57:50.541Z,4.23
2018-11-13T01:00:21.013Z,3.83
2018-11-13T01:02:50.331Z,4.20
2018-11-13T01:05:20.890Z,3.40
2018-11-13T01:07:51.210Z,4.53
2018-11-13T01:10:21.342Z,4.03
2018-11-13T01:12:52.915Z,4.03
2018-11-13T01:15:22.221Z,4.30
2018-11-13T01:17:51.568Z,3.87
2018-11-13T01:20:20.920Z,4.10
2018-11-13T01:22:50.703Z,4.00
2018-11-13T01:25:20.003Z,4.53
2018-11-13T01:27:49.413Z,4.20
2018-11-13T01:30:18.804Z,4.00
2018-11-13T01:32:48.212Z,3.50
2018-11-13T01:35:18.624Z,3.53
2018-11-13T01:37:48.088Z,3.50
2018-11-13T01:40:20.677Z,4.20
2018-11-13T01:42:50.310Z,3.73
2018-11-13T01:45:20.566Z,3.47
2018-11-13T01:47:49.887Z,3.43
2018-11-13T01:50:19.556Z,3.33
2018-11-13T01:52:48.968Z,3.20
2018-11-13T01:55:18.485Z,3.30
2018-11-13T01:57:48.126Z,3.30
2018-11-13T02:00:20.062Z,2.93
2018-11-13T02:02:50.924Z,3.10
2018-11-13T02:05:21.583Z,3.30
2018-11-13T02:07:52.614Z,2.60
2018-11-13T02:10:22.406Z,2.80
2018-11-13T02:12:52.668Z,3.23
2018-11-13T02:15:22.599Z,3.33
2018-11-13T02:17:52.161Z,2.87
2018-11-13T02:20:22.671Z,2.67
2018-11-13T02:22:52.196Z,3.30
2018-11-13T02:25:21.896Z,3.20
2018-11-13T02:27:51.362Z,3.63
2018-11-13T02:30:22.148Z,4.23
2018-11-13T02:32:51.718Z,3.30
2018-11-13T02:35:21.365Z,3.40
2018-11-13T02:37:50.807Z,3.00
2018-11-13T02:40:20.115Z,2.93
2018-11-13T02:42:50.449Z,2.60
2018-11-13T02:45:20.539Z,2.90
2018-11-13T02:47:50.927Z,2.90
2018-11-13T02:50:21.394Z,2.60
2018-11-13T02:52:50.927Z,2.20
2018-11-13T02:55:20.228Z,2.50
2018-11-13T02:57:49.635Z,2.30
2018-11-13T03:00:20.430Z,2.40
2018-11-13T03:02:50.146Z,2.20
2018-11-13T03:05:20.581Z,2.17
2018-11-13T03:07:50.904Z,2.67
2018-11-13T03:10:20.986Z,2.40
2018-11-13T03:12:50.339Z,2.63
2018-11-13T03:15:20.599Z,2.50
2018-11-13T03:17:50.058Z,2.67
2018-11-13T03:20:20.383Z,2.43
2018-11-13T03:22:50.298Z,2.53
2018-11-13T03:25:20.784Z,2.70
2018-11-13T03:27:50.142Z,2.73
2018-11-13T03:30:24.182Z,2.33
2018-11-13T03:32:54.311Z,2.53
2018-11-13T03:35:23.626Z,2.60
2018-11-13T03:37:52.976Z,2.50
2018-11-13T03:40:22.406Z,2.50
2018-11-13T03:42:51.816Z,2.50
2018-11-13T03:45:21.215Z,2.53
2018-11-13T03:47:50.688Z,2.77
2018-11-13T03:50:21.403Z,2.70
2018-11-13T03:52:50.873Z,2.77
2018-11-13T03:55:21.066Z,3.07
2018-11-13T03:57:50.920Z,2.97
2018-11-13T04:00:22.455Z,2.77
2018-11-13T04:02:51.917Z,2.67
2018-11-13T04:05:21.933Z,2.63
2018-11-13T04:07:53.673Z,2.30
2018-11-13T04:10:23.775Z,2.27
2018-11-13T04:12:53.189Z,2.27
2018-11-13T04:15:24.435Z,2.20
2018-11-13T04:17:54.155Z,2.30
2018-11-13T04:20:24.046Z,2.27
2018-11-13T04:22:53.490Z,2.40
2018-11-13T04:25:22.866Z,2.50
2018-11-13T04:27:52.192Z,2.40
2018-11-13T04:30:21.520Z,2.27
2018-11-13T04:32:50.912Z,2.40
2018-11-13T04:35:20.258Z,2.30
2018-11-13T04:37:49.649Z,2.40
2018-11-13T04:40:20.494Z,2.20
2018-11-13T04:42:51.149Z,1.90
2018-11-13T04:45:22.396Z,1.97
2018-11-13T04:47:52.215Z,2.20
2018-11-13T04:50:22.631Z,1.90
2018-11-13T04:52:52.046Z,1.93
2018-11-13T04:55:21.330Z,1.90
2018-11-13T04:57:51.539Z,2.37
2018-11-13T05:00:23.113Z,2.07
2018-11-13T05:02:52.505Z,2.10
2018-11-13T05:05:22.926Z,2.20
2018-11-13T05:07:53.676Z,2.10
2018-11-13T05:10:23.629Z,1.97
2018-11-13T05:12:53.023Z,1.90
2018-11-13T05:15:22.523Z,2.13
2018-11-13T05:17:51.901Z,1.70
2018-11-13T05:20:21.267Z,1.80
2018-11-13T05:22:51.064Z,1.80
2018-11-13T05:25:21.249Z,2.13
2018-11-13T05:27:51.200Z,1.70
2018-11-13T05:30:21.863Z,1.93
2018-11-13T05:32:51.564Z,1.80
2018-11-13T05:35:21.898Z,2.10
2018-11-13T05:37:51.388Z,2.40
2018-11-13T05:40:23.140Z,2.00
2018-11-13T05:42:52.552Z,2.00
2018-11-13T05:45:23.187Z,2.40
2018-11-13T05:47:52.518Z,3.50
2018-11-13T05:50:21.902Z,3.60
2018-11-13T05:52:53.149Z,4.90
2018-11-13T05:55:22.533Z,5.57
2018-11-13T05:57:52.064Z,5.07
2018-11-13T06:00:31.316Z,4.20
2018-11-13T06:03:01.392Z,3.20
2018-11-13T06:05:31.154Z,2.67
2018-11-13T06:08:00.561Z,2.47
2018-11-13T06:10:29.927Z,2.77
2018-11-13T06:12:59.228Z,2.70
2018-11-13T06:15:28.571Z,2.30
2018-11-13T06:17:57.961Z,3.17
2018-11-13T06:20:27.387Z,3.37
2018-11-13T06:22:56.773Z,3.27
2018-11-13T06:25:26.099Z,3.30
2018-11-13T06:27:55.492Z,3.70
2018-11-13T06:30:25.767Z,3.37
2018-11-13T06:32:55.197Z,3.10
2018-11-13T06:35:24.600Z,2.90
2018-11-13T06:37:53.891Z,2.80
2018-11-13T06:40:23.329Z,3.23
2018-11-13T06:42:52.660Z,3.40
2018-11-13T06:45:23.232Z,3.43
2018-11-13T06:47:52.905Z,3.93
2018-11-13T06:50:22.316Z,6.00
2018-11-13T06:52:51.811Z,8.40
2018-11-13T06:55:31.013Z,9.07
2018-11-13T06:58:00.345Z,9.10
2018-11-13T07:00:29.819Z,5.57
2018-11-13T07:02:59.191Z,4.57
2018-11-13T07:05:28.982Z,4.23
2018-11-13T07:07:58.331Z,3.40
2018-11-13T07:10:28.906Z,4.07
2018-11-13T07:12:58.812Z,3.20
2018-11-13T07:15:29.541Z,3.23
2018-11-13T07:18:01.222Z,3.17
2018-11-13T07:20:32.140Z,3.17
2018-11-13T07:23:01.669Z,3.33
2018-11-13T07:25:31.054Z,4.67
2018-11-13T07:28:00.444Z,5.00
2018-11-13T07:30:29.822Z,6.10
2018-11-13T07:32:59.155Z,5.17
2018-11-13T07:35:28.498Z,7.07
2018-11-13T07:37:58.987Z,8.47
2018-11-13T07:40:28.427Z,8.00
2018-11-13T07:42:57.892Z,6.93
2018-11-13T07:45:27.260Z,6.70
2018-11-13T07:47:56.708Z,5.20
2018-11-13T07:50:26.000Z,4.90
2018-11-13T07:52:55.347Z,4.63
2018-11-13T07:55:24.699Z,3.63
2018-11-13T07:57:54.101Z,3.33
2018-11-13T08:00:24.527Z,2.70
2018-11-13T08:02:55.269Z,2.47
2018-11-13T08:05:25.794Z,2.57
2018-11-13T08:07:55.133Z,2.27
2018-11-13T08:10:24.501Z,2.33
2018-11-13T08:12:54.025Z,2.30
2018-11-13T08:15:23.442Z,2.10
2018-11-13T08:17:52.808Z,2.23
2018-11-13T08:20:22.148Z,2.03
2018-11-13T08:22:52.059Z,2.17
2018-11-13T08:25:21.510Z,2.00
2018-11-13T08:27:51.575Z,1.83
2018-11-13T08:30:20.931Z,2.03
2018-11-13T08:32:50.820Z,1.60
2018-11-13T08:35:20.168Z,2.17
2018-11-13T08:37:50.521Z,1.50
2018-11-13T08:40:20.246Z,2.10
2018-11-13T08:42:50.226Z,1.90
2018-11-13T08:45:19.661Z,1.70
2018-11-13T08:47:49.094Z,1.83
2018-11-13T08:50:18.474Z,1.70
2018-11-13T08:52:48.085Z,1.90
2018-11-13T08:55:18.022Z,1.80
2018-11-13T08:57:47.457Z,1.60
2018-11-13T09:00:18.199Z,2.00
2018-11-13T09:02:48.350Z,1.90
2018-11-13T09:05:18.318Z,1.80
2018-11-13T09:07:47.595Z,1.70
2018-11-13T09:10:18.461Z,1.47
2018-11-13T09:12:48.683Z,1.40
2018-11-13T09:15:19.442Z,1.60
2018-11-13T09:17:48.949Z,1.23
2018-11-13T09:20:19.556Z,1.40
2018-11-13T09:22:49.043Z,1.40
2018-11-13T09:25:19.795Z,1.13
2018-11-13T09:27:49.285Z,1.27
2018-11-13T09:30:20.114Z,1.13
2018-11-13T09:32:49.883Z,1.10
2018-11-13T09:35:19.852Z,1.07
2018-11-13T09:37:49.304Z,1.30
2018-11-13T09:40:21.094Z,1.10
2018-11-13T09:42:51.863Z,1.37
2018-11-13T09:45:21.288Z,1.20
2018-11-13T09:47:51.480Z,1.47
2018-11-13T09:50:21.616Z,1.17
2018-11-13T09:52:52.968Z,1.40
2018-11-13T09:55:23.257Z,1.27
2018-11-13T09:57:52.604Z,1.67
2018-11-13T10:00:23.415Z,1.57
2018-11-13T10:02:58.923Z,2.20
2018-11-13T10:05:27.938Z,1.80
2018-11-13T10:07:57.562Z,1.93
2018-11-13T10:10:27.527Z,1.80
2018-11-13T10:12:56.880Z,1.97
2018-11-13T10:15:27.700Z,2.10
2018-11-13T10:17:57.168Z,2.97
2018-11-13T10:20:26.429Z,2.70
2018-11-13T10:22:56.867Z,3.10
2018-11-13T10:25:26.297Z,2.80
2018-11-13T10:27:55.677Z,2.07
2018-11-13T10:30:25.500Z,2.20
2018-11-13T10:32:55.501Z,2.13
2018-11-13T10:35:26.197Z,1.77
2018-11-13T10:37:55.544Z,1.70
2018-11-13T10:40:25.031Z,1.73
2018-11-13T10:42:56.027Z,1.83
2018-11-13T10:45:27.725Z,1.67
2018-11-13T10:47:57.336Z,1.67
2018-11-13T10:50:27.347Z,1.70
2018-11-13T10:52:56.825Z,1.63
2018-11-13T10:55:26.230Z,1.80
2018-11-13T10:57:55.583Z,1.60
2018-11-13T11:02:37.590Z,1.80
2018-11-13T11:05:10.430Z,1.60
2018-11-13T11:07:41.487Z,1.80
2018-11-13T11:10:10.900Z,2.10
2018-11-13T11:12:40.766Z,1.47
2018-11-13T11:15:11.208Z,1.50
2018-11-13T11:17:40.746Z,1.53
2018-11-13T11:20:12.467Z,1.70
2018-11-13T11:22:42.399Z,2.00
2018-11-13T11:25:12.850Z,1.40
2018-11-13T11:27:42.298Z,1.07
2018-11-13T11:30:14.274Z,1.37
2018-11-13T11:32:44.667Z,1.17
2018-11-13T11:35:14.067Z,1.00
2018-11-13T11:37:43.675Z,0.90
2018-11-13T11:40:13.661Z,0.50
2018-11-13T11:42:43.223Z,1.03
2018-11-13T11:45:13.999Z,1.10
2018-11-13T11:47:43.896Z,0.77
2018-11-13T11:50:14.220Z,0.70
2018-11-13T11:52:43.613Z,0.70
2018-11-13T11:55:13.646Z,0.50
2018-11-13T11:57:43.029Z,0.60
2018-11-13T12:00:16.157Z,0.80
2018-11-13T12:02:45.714Z,0.80
2018-11-13T12:05:15.066Z,0.60
2018-11-13T12:07:44.530Z,0.60
2018-11-13T12:10:14.372Z,0.60
2018-11-13T12:12:43.753Z,0.70
2018-11-13T12:15:13.990Z,0.90
2018-11-13T12:17:44.308Z,0.90
2018-11-13T12:20:15.274Z,0.63
2018-11-13T12:22:44.840Z,0.97
2018-11-13T12:25:17.438Z,0.80
2018-11-13T12:27:47.216Z,0.80
2018-11-13T12:30:18.606Z,0.80
2018-11-13T12:32:49.403Z,0.70
2018-11-13T12:35:19.882Z,0.90
2018-11-13T12:37:49.442Z,0.60
2018-11-13T12:40:21.125Z,0.80
2018-11-13T12:42:51.446Z,0.60
2018-11-13T12:45:21.398Z,0.90
2018-11-13T12:47:50.904Z,0.80
2018-11-13T12:50:20.973Z,1.00
2018-11-13T12:52:50.545Z,0.80
2018-11-13T12:55:21.509Z,0.90
2018-11-13T12:57:52.271Z,0.80
2018-11-13T13:00:23.822Z,0.70
2018-11-13T13:02:53.273Z,0.70
2018-11-13T13:05:23.897Z,0.73
2018-11-13T13:07:56.125Z,1.00
2018-11-13T13:10:25.867Z,0.70
2018-11-13T13:12:55.877Z,0.60
2018-11-13T13:15:25.271Z,0.60
2018-11-13T13:17:54.667Z,0.63
2018-11-13T13:20:26.009Z,0.50
2018-11-13T13:22:56.217Z,0.70
2018-11-13T13:25:25.540Z,0.50
2018-11-13T13:27:54.911Z,0.40
2018-11-13T13:30:25.567Z,0.60
2018-11-13T13:32:55.005Z,0.50
2018-11-13T13:35:43.569Z,0.60
2018-11-13T13:38:12.894Z,0.60
2018-11-13T13:40:43.659Z,0.80
2018-11-13T13:43:13.968Z,0.60
2018-11-13T13:45:44.330Z,0.60
2018-11-13T13:48:13.715Z,0.70
2018-11-13T13:50:43.132Z,0.70
2018-11-13T13:53:13.625Z,0.70
2018-11-13T13:55:43.542Z,1.00
2018-11-13T13:58:13.550Z,0.70
2018-11-13T14:00:43.105Z,0.70
2018-11-13T14:03:23.743Z,0.70
2018-11-13T14:06:06.114Z,0.70
2018-11-13T14:08:49.293Z,0.60
2018-11-13T14:11:26.058Z,1.00
2018-11-13T14:14:00.513Z,0.70
2018-11-13T14:16:37.123Z,0.60
2018-11-13T14:19:15.929Z,0.60
2018-11-13T14:21:45.451Z,0.57
2018-11-13T14:24:14.762Z,0.70
2018-11-13T14:26:51.066Z,0.70
2018-11-13T14:29:24.945Z,0.80
2018-11-13T14:31:54.358Z,0.80
2018-11-13T14:34:23.695Z,0.70
2018-11-13T14:36:53.073Z,0.67
2018-11-13T14:39:22.518Z,0.83
2018-11-13T14:41:51.975Z,0.60
2018-11-13T14:44:21.267Z,0.90
2018-11-13T14:46:51.229Z,0.90
2018-11-13T14:49:20.571Z,0.70
2018-11-13T14:51:49.985Z,0.70
2018-11-13T14:54:19.430Z,0.60
2018-11-13T14:56:48.805Z,0.70
2018-11-13T14:59:18.143Z,0.70
2018-11-13T15:01:49.021Z,0.67
2018-11-13T15:04:18.522Z,0.90
2018-11-13T15:06:47.852Z,0.60
2018-11-13T15:09:17.246Z,0.70
2018-11-13T15:11:46.583Z,0.70
2018-11-13T15:14:16.175Z,0.60
2018-11-13T15:16:45.820Z,0.83
2018-11-13T15:19:15.174Z,0.70
2018-11-13T15:21:44.573Z,0.67
2018-11-13T15:24:14.709Z,0.90
2018-11-13T15:26:44.078Z,0.77
2018-11-13T15:29:14.066Z,0.60
2018-11-13T15:31:43.444Z,0.60
2018-11-13T15:34:13.147Z,0.90
2018-11-13T15:36:42.624Z,0.70
2018-11-13T15:39:13.687Z,0.70
2018-11-13T15:41:43.523Z,0.70
2018-11-13T15:44:13.472Z,0.90
2018-11-13T15:46:43.013Z,0.90
2018-11-13T15:49:12.536Z,0.77
2018-11-13T15:51:42.225Z,0.90
2018-11-13T15:54:11.530Z,1.47
2018-11-13T15:56:40.880Z,1.10
2018-11-13T15:59:10.347Z,1.00
2018-11-13T16:01:40.067Z,1.20
2018-11-13T16:04:09.384Z,1.23
2018-11-13T16:06:39.295Z,0.90
2018-11-13T16:09:12.245Z,0.80
2018-11-13T16:11:41.669Z,1.00
2018-11-13T16:14:11.279Z,1.00
2018-11-13T16:16:41.035Z,1.20
2018-11-13T16:19:10.395Z,1.20
2018-11-13T16:21:39.813Z,1.17
2018-11-13T16:24:09.106Z,1.10
2018-11-13T16:26:38.466Z,1.20
2018-11-13T16:29:07.855Z,0.80
2018-11-13T16:31:37.171Z,1.00
2018-11-13T16:34:06.711Z,1.10
2018-11-13T16:36:36.157Z,1.03
2018-11-13T16:39:10.640Z,1.13
2018-11-13T16:41:40.261Z,1.20
2018-11-13T16:44:09.647Z,1.10
2018-11-13T16:46:39.044Z,1.03
2018-11-13T16:49:08.848Z,1.10
2018-11-13T16:51:38.232Z,1.10
2018-11-13T16:54:08.098Z,0.90
2018-11-13T16:56:42.747Z,1.10
2018-11-13T16:59:12.497Z,1.00
2018-11-13T17:01:41.900Z,1.20
2018-11-13T17:04:11.760Z,1.50
2018-11-13T17:06:41.884Z,1.40
2018-11-13T17:09:12.120Z,1.60
2018-11-13T17:11:41.800Z,1.80
2018-11-13T17:14:11.255Z,1.80
2018-11-13T17:16:40.943Z,1.60
2018-11-13T17:19:10.267Z,1.43
2018-11-13T17:21:39.625Z,1.40
2018-11-13T17:24:08.976Z,1.43
2018-11-13T17:26:38.394Z,1.50
2018-11-13T17:29:07.818Z,1.53
2018-11-13T17:31:37.291Z,1.40
2018-11-13T17:34:06.646Z,1.30
2018-11-13T17:36:36.938Z,1.10
2018-11-13T17:39:12.445Z,1.10
2018-11-13T17:41:42.202Z,1.00
2018-11-13T17:44:11.947Z,1.20
2018-11-13T17:46:41.352Z,1.20
2018-11-13T17:49:10.683Z,2.47
2018-11-13T17:51:40.092Z,2.20
2018-11-13T17:54:09.459Z,2.40
2018-11-13T17:56:39.855Z,2.03
2018-11-13T17:59:09.227Z,2.10
2018-11-13T18:01:40.475Z,1.83
2018-11-13T18:04:14.594Z,2.43
2018-11-13T18:06:44.108Z,2.50
2018-11-13T18:09:14.962Z,2.60
2018-11-13T18:11:44.423Z,2.80
2018-11-13T18:14:13.863Z,2.40
2018-11-13T18:16:44.197Z,2.43
2018-11-13T18:19:13.648Z,2.30
2018-11-13T18:21:43.126Z,2.70
2018-11-13T18:24:12.949Z,2.37
2018-11-13T18:26:42.523Z,2.63
2018-11-13T18:29:11.864Z,2.17
2018-11-13T18:31:42.616Z,2.47
2018-11-13T18:34:12.980Z,2.40
2018-11-13T18:36:42.779Z,2.30
2018-11-13T18:39:14.646Z,2.20
2018-11-13T18:41:44.315Z,2.50
2018-11-13T18:44:14.942Z,2.47
2018-11-13T18:46:44.746Z,2.20
2018-11-13T18:49:15.347Z,2.20
2018-11-13T18:51:45.426Z,2.73
2018-11-13T18:54:22.972Z,2.63
2018-11-13T18:56:52.835Z,2.50
2018-11-13T18:59:29.666Z,2.83
2018-11-13T19:02:04.996Z,2.60
2018-11-13T19:04:34.517Z,2.40
2018-11-13T19:07:04.212Z,3.00
2018-11-13T19:09:34.947Z,3.03
2018-11-13T19:12:04.941Z,2.90
2018-11-13T19:14:35.119Z,3.63
2018-11-13T19:17:04.765Z,2.77
2018-11-13T19:19:34.286Z,2.10
2018-11-13T19:22:04.310Z,1.97
2018-11-13T19:24:33.865Z,1.80
2018-11-13T19:27:03.383Z,2.60
2018-11-13T19:29:32.853Z,2.13
2018-11-13T19:32:02.898Z,1.70
2018-11-13T19:34:32.447Z,1.80
2018-11-13T19:37:02.035Z,1.70
2018-11-13T19:39:31.661Z,2.10
2018-11-13T19:42:01.097Z,1.80
2018-11-13T19:44:30.631Z,1.87
2018-11-13T19:47:00.157Z,2.13
2018-11-13T19:49:29.581Z,1.93
2018-11-13T19:51:59.567Z,1.60
2018-11-13T19:54:29.880Z,1.30
2018-11-13T19:57:00.465Z,1.23
2018-11-13T19:59:31.642Z,1.20
2018-11-13T20:02:01.432Z,1.40
2018-11-13T20:04:30.872Z,1.70
2018-11-13T20:07:00.249Z,1.70
2018-11-13T20:09:29.917Z,1.60
2018-11-13T20:11:59.258Z,2.00
2018-11-13T20:14:28.766Z,1.90
2018-11-13T20:16:58.157Z,1.83
2018-11-13T20:19:27.537Z,2.30
2018-11-13T20:21:56.927Z,2.20
2018-11-13T20:24:26.312Z,2.27
2018-11-13T20:26:55.862Z,1.70
2018-11-13T20:29:25.420Z,2.10
2018-11-13T20:31:54.947Z,2.00
2018-11-13T20:34:24.998Z,2.00
2018-11-13T20:36:54.390Z,2.13
2018-11-13T20:39:23.791Z,2.40
2018-11-13T20:41:53.230Z,2.83
2018-11-13T20:44:22.626Z,3.03
2018-11-13T20:46:51.990Z,2.43
2018-11-13T20:49:21.317Z,2.60
2018-11-13T20:51:50.995Z,2.80
2018-11-13T20:54:20.332Z,2.20
2018-11-13T20:56:49.757Z,2.43
2018-11-13T20:59:19.101Z,2.20
2018-11-13T21:01:48.591Z,2.40
2018-11-13T21:04:18.037Z,2.30
2018-11-13T21:06:47.434Z,2.50
2018-11-13T21:09:16.784Z,2.30
2018-11-13T21:11:46.219Z,2.50
2018-11-13T21:14:15.671Z,2.13
2018-11-13T21:16:45.175Z,2.87
2018-11-13T21:19:15.115Z,2.23
2018-11-13T21:21:44.522Z,2.43
2018-11-13T21:24:13.893Z,2.63
2018-11-13T21:26:43.320Z,2.60
2018-11-13T21:29:12.766Z,2.20
2018-11-13T21:31:42.168Z,2.30
2018-11-13T21:34:11.505Z,2.40
2018-11-13T21:36:40.849Z,2.67
2018-11-13T21:39:13.123Z,2.27
2018-11-13T21:41:42.542Z,2.60
2018-11-13T21:44:12.095Z,2.30
2018-11-13T21:46:41.453Z,2.70
2018-11-13T21:49:10.866Z,2.53
2018-11-13T21:51:40.274Z,2.87
2018-11-13T21:54:09.660Z,2.43
2018-11-13T21:56:39.033Z,3.33
2018-11-13T21:59:08.390Z,3.23
2018-11-13T22:01:37.852Z,3.20
2018-11-13T22:04:07.344Z,3.37
2018-11-13T22:06:36.825Z,2.90
2018-11-13T22:09:10.173Z,3.73
2018-11-13T22:11:39.547Z,3.00
2018-11-13T22:14:08.921Z,3.03
2018-11-13T22:16:38.391Z,2.87
2018-11-13T22:19:07.739Z,2.80
2018-11-13T22:21:37.085Z,2.93
2018-11-13T22:24:06.837Z,2.77
2018-11-13T22:26:36.136Z,3.13
2018-11-13T22:29:05.858Z,2.87
2018-11-13T22:31:35.213Z,3.17
2018-11-13T22:34:04.683Z,3.20
2018-11-13T22:36:34.249Z,2.80
2018-11-13T22:39:04.288Z,3.43
2018-11-13T22:41:33.612Z,3.30
2018-11-13T22:44:02.944Z,3.50
2018-11-13T22:46:32.285Z,3.13
2018-11-13T22:49:01.650Z,3.17
2018-11-13T22:51:31.366Z,3.17
2018-11-13T22:54:00.866Z,3.40
2018-11-13T22:56:30.208Z,3.00
2018-11-13T22:58:59.565Z,2.90
2018-11-13T23:01:29.275Z,2.83
2018-11-13T23:03:58.634Z,3.10
2018-11-13T23:06:27.949Z,2.73
2018-11-13T23:08:57.362Z,2.93
2018-11-13T23:11:26.760Z,2.70
2018-11-13T23:13:56.092Z,3.07
2018-11-13T23:16:25.528Z,3.47
2018-11-13T23:18:54.891Z,3.00
2018-11-13T23:21:24.294Z,3.10
2018-11-13T23:23:53.643Z,3.20
2018-11-13T23:26:23.020Z,3.37
2018-11-13T23:28:52.453Z,3.40
2018-11-13T23:31:21.820Z,3.50
2018-11-13T23:33:51.990Z,3.23
2018-11-13T23:36:21.835Z,3.50
2018-11-13T23:38:52.647Z,3.57
2018-11-13T23:41:21.967Z,3.40
2018-11-13T23:43:51.348Z,3.50
2018-11-13T23:46:20.679Z,3.20
2018-11-13T23:48:50.125Z,3.60
2018-11-13T23:51:20.619Z,3.07
2018-11-13T23:53:50.410Z,3.10
2018-11-13T23:56:19.861Z,3.10
2018-11-13T23:58:49.171Z,4.00
